Time;durP1;ratioP1;P1;durP2;ratioP2;P2;SDS_P1;SDS_P2;PMS_P1;PMS_P2;Temp;Humidity;BMP_temperature;BMP_pressure;BME280_temperature;BME280_humidity;BME280_pressure;Samples;Min_cycle;Max_cycle;Signal;HPM_P1;HPM_P2
2023/08/29 00:02:45;;;;;;;2.10;1.90;;;;;;;;;;5060878;28;20554;-71
2023/08/29 00:05:49;;;;;;;2.97;1.60;;;;;;;;;;5073464;28;20641;-71
2023/08/29 00:08:53;;;;;;;7.60;2.40;;;;;;;;;;5073631;28;20629;-71
2023/08/29 00:11:57;;;;;;;1.70;1.60;;;;;;;;;;5073288;28;20211;-71
2023/08/29 00:15:04;;;;;;;2.00;1.63;;;;;;;;;;5060794;28;20645;-71
2023/08/29 00:18:07;;;;;;;2.63;1.70;;;;;;;;;;5073219;28;20211;-71
2023/08/29 00:21:12;;;;;;;2.40;1.73;;;;;;;;;;5073028;28;20519;-71
2023/08/29 00:24:16;;;;;;;2.30;1.77;;;;;;;;;;5060701;28;20176;-71
2023/08/29 00:27:20;;;;;;;2.17;1.83;;;;;;;;;;5073019;28;20179;-71
2023/08/29 00:30:25;;;;;;;6.00;1.70;;;;;;;;;;5073229;28;20175;-71
2023/08/29 00:33:29;;;;;;;2.20;2.00;;;;;;;;;;5060500;28;20219;-71
2023/08/29 00:36:33;;;;;;;2.50;2.20;;;;;;;;;;5060581;28;20183;-71
2023/08/29 00:39:37;;;;;;;2.33;1.87;;;;;;;;;;5060825;28;20175;-71
2023/08/29 00:42:41;;;;;;;2.83;1.90;;;;;;;;;;5060486;28;20207;-71
2023/08/29 00:45:48;;;;;;;5.70;2.17;;;;;;;;;;5060671;28;20180;-71
2023/08/29 00:48:53;;;;;;;4.43;1.77;;;;;;;;;;5060401;28;20176;-71
2023/08/29 00:51:59;;;;;;;4.10;2.00;;;;;;;;;;5060356;28;20214;-71
2023/08/29 00:55:04;;;;;;;1.90;1.80;;;;;;;;;;5060264;28;20203;-71
2023/08/29 00:58:09;;;;;;;3.10;1.80;;;;;;;;;;5060430;28;20682;-71
2023/08/29 01:01:16;;;;;;;2.40;2.20;;;;;;;;;;5060606;28;20180;-71
2023/08/29 01:04:20;;;;;;;2.77;1.97;;;;;;;;;;5072661;28;20638;-71
2023/08/29 01:07:24;;;;;;;3.37;1.90;;;;;;;;;;5072516;28;20195;-71
2023/08/29 01:11:03;;;;;;;2.40;2.10;;;;;;;;;;5062522;28;20179;-71
2023/08/29 01:14:26;;;;;;;2.53;2.23;;;;;;;;;;5064491;28;20180;-71
2023/08/29 01:17:35;;;;;;;2.77;2.57;;;;;;;;;;5063791;28;20172;-71
2023/08/29 01:20:42;;;;;;;3.30;2.20;;;;;;;;;;5063834;28;20195;-71
2023/08/29 01:23:55;;;;;;;3.20;2.80;;;;;;;;;;5063845;28;20693;-71
2023/08/29 01:27:00;;;;;;;5.70;2.73;;;;;;;;;;5052590;28;20188;-71
2023/08/29 01:30:05;;;;;;;3.00;2.70;;;;;;;;;;5063612;28;20171;-71
2023/08/29 01:33:10;;;;;;;2.70;2.50;;;;;;;;;;5063567;28;20211;-71
2023/08/29 01:36:15;;;;;;;2.90;2.40;;;;;;;;;;5076005;28;20191;-71
2023/08/29 01:39:19;;;;;;;2.73;2.43;;;;;;;;;;5063545;28;20677;-71
2023/08/29 01:42:24;;;;;;;2.80;2.47;;;;;;;;;;5075681;28;20215;-71
2023/08/29 01:45:28;;;;;;;2.50;2.30;;;;;;;;;;5052233;28;20191;-71
2023/08/29 01:48:34;;;;;;;4.07;2.20;;;;;;;;;;5051898;28;20542;-71
2023/08/29 01:51:38;;;;;;;2.33;2.10;;;;;;;;;;5063192;28;20199;-71
2023/08/29 01:54:42;;;;;;;3.00;1.93;;;;;;;;;;5063053;28;20203;-71
2023/08/29 01:57:49;;;;;;;3.83;2.00;;;;;;;;;;5063130;28;20171;-71
2023/08/29 02:00:54;;;;;;;2.37;2.17;;;;;;;;;;5063347;28;20180;-71
2023/08/29 02:03:58;;;;;;;2.03;1.90;;;;;;;;;;5075601;28;20171;-71
2023/08/29 02:07:02;;;;;;;2.00;1.80;;;;;;;;;;5063101;28;20183;-71
2023/08/29 02:10:08;;;;;;;2.60;2.40;;;;;;;;;;5063171;28;20179;-71
2023/08/29 02:13:12;;;;;;;3.17;2.30;;;;;;;;;;5063082;28;20697;-71
2023/08/29 02:16:17;;;;;;;4.90;1.77;;;;;;;;;;5063097;28;20172;-71
2023/08/29 02:19:21;;;;;;;2.20;2.00;;;;;;;;;;5062791;28;20199;-71
2023/08/29 02:22:25;;;;;;;2.60;2.37;;;;;;;;;;5050450;28;20219;-71
2023/08/29 02:25:29;;;;;;;2.50;2.30;;;;;;;;;;5062750;28;20167;-71
2023/08/29 02:28:37;;;;;;;2.50;2.30;;;;;;;;;;5075179;28;20171;-71
2023/08/29 02:31:41;;;;;;;2.37;2.17;;;;;;;;;;5051129;28;20176;-71
2023/08/29 02:34:46;;;;;;;3.23;2.30;;;;;;;;;;5062508;28;20527;-71
2023/08/29 02:37:50;;;;;;;2.00;1.90;;;;;;;;;;5074570;28;20195;-71
2023/08/29 02:40:54;;;;;;;2.60;2.40;;;;;;;;;;5062288;28;20199;-71
2023/08/29 02:43:58;;;;;;;2.10;2.00;;;;;;;;;;5062271;28;20191;-72
2023/08/29 02:47:03;;;;;;;2.10;2.00;;;;;;;;;;5074628;28;20179;-71
2023/08/29 02:50:09;;;;;;;2.40;2.07;;;;;;;;;;5074742;28;20238;-71
2023/08/29 02:53:18;;;;;;;2.20;2.10;;;;;;;;;;5074500;28;20219;-71
2023/08/29 02:56:22;;;;;;;2.10;2.00;;;;;;;;;;5062386;28;20188;-72
2023/08/29 02:59:27;;;;;;;2.20;1.87;;;;;;;;;;5062119;28;20685;-72
2023/08/29 03:02:32;;;;;;;2.03;1.90;;;;;;;;;;5074326;28;20630;-72
2023/08/29 03:05:36;;;;;;;2.13;1.93;;;;;;;;;;5061874;28;20179;-71
2023/08/29 03:08:42;;;;;;;2.40;2.20;;;;;;;;;;5061922;28;20187;-72
2023/08/29 03:11:46;;;;;;;2.20;2.00;;;;;;;;;;5061849;28;20180;-71
2023/08/29 03:14:53;;;;;;;1.90;1.80;;;;;;;;;;5061636;28;20172;-71
2023/08/29 03:17:59;;;;;;;2.00;1.90;;;;;;;;;;5061847;28;20634;-71
2023/08/29 03:21:06;;;;;;;2.23;2.03;;;;;;;;;;5061492;28;20176;-72
2023/08/29 03:24:10;;;;;;;2.33;2.13;;;;;;;;;;5073831;28;20171;-72
2023/08/29 03:27:14;;;;;;;2.13;1.97;;;;;;;;;;5061690;28;20179;-72
2023/08/29 03:30:18;;;;;;;2.20;1.90;;;;;;;;;;5061334;28;20176;-72
2023/08/29 03:33:22;;;;;;;2.57;2.10;;;;;;;;;;5072949;28;20207;-72
2023/08/29 03:36:27;;;;;;;2.00;1.90;;;;;;;;;;5073606;28;20180;-72
2023/08/29 03:39:31;;;;;;;4.17;2.20;;;;;;;;;;5061385;28;20207;-71
2023/08/29 03:42:35;;;;;;;2.00;1.90;;;;;;;;;;5049900;28;20211;-72
2023/08/29 03:45:39;;;;;;;2.17;2.00;;;;;;;;;;5073467;28;20179;-72
2023/08/29 03:48:44;;;;;;;2.03;1.83;;;;;;;;;;5061187;28;20183;-71
2023/08/29 03:51:48;;;;;;;2.33;1.70;;;;;;;;;;5061224;28;20183;-72
2023/08/29 03:54:53;;;;;;;1.80;1.70;;;;;;;;;;5074410;22;20227;-74
2023/08/29 03:57:58;;;;;;;2.20;2.00;;;;;;;;;;5061553;28;20188;-74
2023/08/29 04:01:03;;;;;;;1.90;1.80;;;;;;;;;;5050050;28;20179;-74
2023/08/29 04:04:08;;;;;;;2.13;1.90;;;;;;;;;;5041561;28;20562;-74
2023/08/29 04:07:12;;;;;;;1.70;1.60;;;;;;;;;;5041533;28;20634;-74
2023/08/29 04:10:16;;;;;;;2.00;1.90;;;;;;;;;;5029736;28;20180;-74
2023/08/29 04:13:20;;;;;;;2.27;2.07;;;;;;;;;;5053504;28;20223;-74
2023/08/29 04:16:25;;;;;;;3.63;2.20;;;;;;;;;;5030480;28;20183;-74
2023/08/29 04:19:30;;;;;;;2.03;1.83;;;;;;;;;;5041493;28;20208;-74
2023/08/29 04:22:35;;;;;;;2.20;2.00;;;;;;;;;;5041601;28;20220;-73
2023/08/29 04:25:40;;;;;;;2.07;1.90;;;;;;;;;;5041699;28;20184;-74
2023/08/29 04:28:43;;;;;;;2.20;2.00;;;;;;;;;;5041708;28;20511;-74
2023/08/29 04:31:48;;;;;;;2.13;1.97;;;;;;;;;;5041368;28;20199;-74
2023/08/29 04:34:52;;;;;;;2.77;2.57;;;;;;;;;;5041497;28;20184;-74
2023/08/29 04:37:57;;;;;;;3.23;2.47;;;;;;;;;;5041610;28;20188;-74
2023/08/29 04:41:01;;;;;;;2.37;2.17;;;;;;;;;;5041713;28;20634;-74
2023/08/29 04:44:05;;;;;;;2.20;2.00;;;;;;;;;;5041566;28;20179;-74
2023/08/29 04:47:09;;;;;;;2.13;1.93;;;;;;;;;;5045347;28;20196;-74
2023/08/29 04:50:14;;;;;;;3.87;1.90;;;;;;;;;;5033932;28;20183;-74
2023/08/29 04:53:19;;;;;;;2.00;1.80;;;;;;;;;;5045140;28;20212;-74
2023/08/29 04:56:24;;;;;;;2.50;2.00;;;;;;;;;;5033829;28;20195;-73
2023/08/29 04:59:28;;;;;;;2.50;2.27;;;;;;;;;;5022510;28;20204;-74
2023/08/29 05:02:34;;;;;;;3.97;2.00;;;;;;;;;;5044918;28;20212;-74
2023/08/29 05:05:38;;;;;;;2.13;1.93;;;;;;;;;;5044854;28;20180;-72
2023/08/29 05:08:46;;;;;;;3.27;2.40;;;;;;;;;;5044573;28;20176;-73
2023/08/29 05:11:50;;;;;;;2.60;2.40;;;;;;;;;;5033291;28;20563;-73
2023/08/29 05:14:54;;;;;;;2.30;2.10;;;;;;;;;;5033377;28;20520;-73
2023/08/29 05:17:58;;;;;;;2.33;2.13;;;;;;;;;;5033127;28;20185;-72
2023/08/29 05:21:02;;;;;;;2.33;2.03;;;;;;;;;;5033056;28;20184;-72
2023/08/29 05:24:06;;;;;;;2.50;2.00;;;;;;;;;;5032908;28;20188;-73
2023/08/29 05:27:11;;;;;;;2.63;2.00;;;;;;;;;;5056248;28;20184;-74
2023/08/29 05:30:15;;;;;;;2.70;2.07;;;;;;;;;;5043982;28;20180;-74
2023/08/29 05:33:19;;;;;;;2.40;2.20;;;;;;;;;;5055989;28;20212;-74
2023/08/29 05:36:23;;;;;;;3.00;2.30;;;;;;;;;;5055944;28;20196;-74
2023/08/29 05:39:28;;;;;;;2.70;2.50;;;;;;;;;;5043877;28;20697;-73
2023/08/29 05:42:32;;;;;;;2.57;2.37;;;;;;;;;;5055994;28;20551;-74
2023/08/29 05:45:37;;;;;;;3.97;2.50;;;;;;;;;;5043815;28;20627;-74
2023/08/29 05:48:41;;;;;;;2.93;2.73;;;;;;;;;;5055966;28;20168;-74
2023/08/29 05:51:45;;;;;;;2.70;2.50;;;;;;;;;;5055705;28;20180;-74
2023/08/29 05:54:49;;;;;;;4.97;2.47;;;;;;;;;;5032086;28;20199;-74
2023/08/29 05:57:53;;;;;;;2.50;2.30;;;;;;;;;;5054758;28;20176;-74
2023/08/29 06:00:58;;;;;;;2.20;2.07;;;;;;;;;;5055431;28;20204;-74
2023/08/29 06:04:04;;;;;;;2.93;2.00;;;;;;;;;;5043187;28;20176;-73
2023/08/29 06:07:09;;;;;;;2.77;2.37;;;;;;;;;;5055426;28;20184;-74
2023/08/29 06:10:13;;;;;;;3.40;2.17;;;;;;;;;;5055374;28;20172;-74
2023/08/29 06:13:17;;;;;;;2.40;2.00;;;;;;;;;;5055202;28;20555;-74
2023/08/29 06:16:21;;;;;;;2.17;1.97;;;;;;;;;;5043310;28;20176;-74
2023/08/29 06:19:25;;;;;;;2.10;1.90;;;;;;;;;;5042921;28;20211;-74
2023/08/29 06:22:29;;;;;;;2.07;1.97;;;;;;;;;;5042758;28;20211;-72
2023/08/29 06:25:33;;;;;;;3.63;1.90;;;;;;;;;;5042803;28;20180;-73
2023/08/29 06:28:37;;;;;;;2.73;1.80;;;;;;;;;;5042852;28;20184;-73
2023/08/29 06:31:41;;;;;;;2.33;1.93;;;;;;;;;;5054880;28;20172;-73
2023/08/29 06:34:45;;;;;;;2.23;1.70;;;;;;;;;;5042684;28;20176;-73
2023/08/29 06:37:50;;;;;;;2.30;2.10;;;;;;;;;;5055051;28;20176;-72
2023/08/29 06:40:55;;;;;;;2.40;2.00;;;;;;;;;;5031247;28;20548;-73
2023/08/29 06:43:59;;;;;;;2.53;2.00;;;;;;;;;;5054965;28;20639;-73
2023/08/29 06:47:03;;;;;;;3.40;1.97;;;;;;;;;;5054607;28;20176;-73
2023/08/29 06:50:08;;;;;;;2.70;1.90;;;;;;;;;;5042523;28;20176;-73
2023/08/29 06:53:12;;;;;;;2.83;2.40;;;;;;;;;;5054460;28;20216;-72
2023/08/29 06:56:18;;;;;;;2.13;1.93;;;;;;;;;;5042234;28;20547;-72
2023/08/29 06:59:22;;;;;;;2.10;1.90;;;;;;;;;;5042161;28;20188;-72
2023/08/29 07:02:26;;;;;;;1.73;1.63;;;;;;;;;;5042203;28;20211;-72
2023/08/29 07:05:30;;;;;;;2.83;1.70;;;;;;;;;;5054519;28;20176;-73
2023/08/29 07:08:37;;;;;;;2.00;1.80;;;;;;;;;;5030219;28;20195;-73
2023/08/29 07:11:41;;;;;;;2.10;1.90;;;;;;;;;;5054426;28;20172;-73
2023/08/29 07:14:45;;;;;;;2.10;1.80;;;;;;;;;;5054401;28;20184;-72
2023/08/29 07:17:49;;;;;;;2.43;1.90;;;;;;;;;;5041755;28;20527;-72
2023/08/29 07:20:53;;;;;;;1.70;1.60;;;;;;;;;;5042079;28;20204;-73
2023/08/29 07:23:57;;;;;;;1.77;1.67;;;;;;;;;;5054107;28;20196;-72
2023/08/29 07:27:01;;;;;;;2.50;1.50;;;;;;;;;;5041521;28;20191;-73
2023/08/29 07:30:06;;;;;;;2.13;1.60;;;;;;;;;;5053743;28;20196;-72
2023/08/29 07:33:11;;;;;;;2.07;1.50;;;;;;;;;;5053688;28;20686;-72
2023/08/29 07:36:16;;;;;;;2.50;1.90;;;;;;;;;;5041450;28;20196;-72
2023/08/29 07:39:20;;;;;;;2.23;1.73;;;;;;;;;;5041210;28;20196;-73
2023/08/29 07:42:25;;;;;;;1.80;1.40;;;;;;;;;;5041334;28;20559;-73
2023/08/29 07:45:30;;;;;;;2.33;1.40;;;;;;;;;;5041218;28;20180;-73
2023/08/29 07:48:34;;;;;;;2.03;1.50;;;;;;;;;;5053790;28;20176;-73
2023/08/29 07:51:42;;;;;;;2.00;1.40;;;;;;;;;;5053367;28;20171;-74
2023/08/29 07:54:46;;;;;;;2.30;1.40;;;;;;;;;;5041195;28;20176;-74
2023/08/29 07:57:50;;;;;;;2.37;2.17;;;;;;;;;;5053501;28;20180;-74
2023/08/29 08:00:55;;;;;;;1.60;1.50;;;;;;;;;;5041165;28;20662;-74
2023/08/29 08:03:59;;;;;;;1.73;1.30;;;;;;;;;;5041090;28;20519;-74
2023/08/29 08:07:03;;;;;;;1.57;1.23;;;;;;;;;;5053484;28;20627;-74
2023/08/29 08:10:08;;;;;;;1.30;1.20;;;;;;;;;;5053071;28;20172;-74
2023/08/29 08:13:13;;;;;;;1.20;1.10;;;;;;;;;;5041041;28;20211;-73
2023/08/29 08:16:17;;;;;;;0.87;0.80;;;;;;;;;;5053080;28;20180;-74
2023/08/29 08:19:20;;;;;;;1.20;0.90;;;;;;;;;;5052392;28;20188;-73
2023/08/29 08:22:25;;;;;;;0.67;0.67;;;;;;;;;;5053176;28;20204;-73
2023/08/29 08:25:29;;;;;;;1.87;0.80;;;;;;;;;;5040884;28;20642;-73
2023/08/29 08:28:33;;;;;;;1.00;0.90;;;;;;;;;;5053167;28;20622;-73
2023/08/29 08:31:37;;;;;;;0.83;0.63;;;;;;;;;;5052881;28;20176;-73
2023/08/29 08:34:41;;;;;;;1.10;0.80;;;;;;;;;;5053305;28;20176;-72
2023/08/29 08:37:45;;;;;;;0.60;0.60;;;;;;;;;;5040639;28;20195;-72
2023/08/29 08:40:53;;;;;;;3.17;0.93;;;;;;;;;;5040474;28;20223;-73
2023/08/29 08:44:03;;;;;;;1.10;1.00;;;;;;;;;;5053058;28;20639;-73
2023/08/29 08:47:08;;;;;;;1.50;1.00;;;;;;;;;;5053037;28;20181;-73
2023/08/29 08:50:12;;;;;;;1.50;1.10;;;;;;;;;;5052775;28;20176;-73
2023/08/29 08:53:20;;;;;;;3.03;1.27;;;;;;;;;;5040397;28;20690;-72
2023/08/29 08:56:24;;;;;;;1.87;1.20;;;;;;;;;;5040956;28;20196;-73
2023/08/29 08:59:28;;;;;;;1.10;1.00;;;;;;;;;;5053650;28;20180;-73
2023/08/29 09:02:33;;;;;;;1.30;1.00;;;;;;;;;;5053179;28;20694;-73
2023/08/29 09:05:37;;;;;;;1.10;0.90;;;;;;;;;;5053223;28;20176;-73
2023/08/29 09:08:42;;;;;;;0.70;0.70;;;;;;;;;;5041526;28;20508;-73
2023/08/29 09:11:54;;;;;;;1.93;0.80;;;;;;;;;;5054935;28;20196;-73
2023/08/29 09:15:02;;;;;;;1.43;1.00;;;;;;;;;;5056626;28;20180;-73
2023/08/29 09:18:08;;;;;;;0.80;0.80;;;;;;;;;;5056821;28;20176;-73
2023/08/29 09:21:21;;;;;;;2.17;1.03;;;;;;;;;;5033368;28;20204;-73
2023/08/29 09:24:28;;;;;;;1.00;0.90;;;;;;;;;;5057011;28;20204;-73
2023/08/29 09:27:44;;;;;;;1.10;0.97;;;;;;;;;;5056809;28;20185;-74
2023/08/29 09:30:49;;;;;;;1.40;1.00;;;;;;;;;;5057131;28;20181;-73
2023/08/29 09:33:53;;;;;;;0.80;0.80;;;;;;;;;;5045989;28;20216;-73
2023/08/29 09:36:58;;;;;;;0.90;0.90;;;;;;;;;;5057968;28;20196;-73
2023/08/29 09:40:04;;;;;;;2.77;0.97;;;;;;;;;;5057673;28;20523;-73
2023/08/29 09:43:08;;;;;;;1.17;0.90;;;;;;;;;;5045609;28;20212;-73
2023/08/29 09:46:12;;;;;;;1.13;0.90;;;;;;;;;;5045111;28;20172;-73
2023/08/29 09:49:16;;;;;;;1.07;1.00;;;;;;;;;;5057139;28;20196;-73
2023/08/29 09:52:22;;;;;;;1.53;0.90;;;;;;;;;;5057092;28;20563;-73
2023/08/29 09:55:34;;;;;;;3.03;1.13;;;;;;;;;;5044368;28;20200;-73
2023/08/29 09:58:39;;;;;;;1.60;0.90;;;;;;;;;;5083800;22;20231;-72
2023/08/29 10:01:44;;;;;;;1.37;1.20;;;;;;;;;;5063052;28;20210;-71
2023/08/29 10:05:08;;;;;;;1.30;1.20;;;;;;;;;;5075419;28;20176;-72
2023/08/29 10:08:23;;;;;;;3.63;1.10;;;;;;;;;;5075528;28;20180;-72
2023/08/29 10:11:28;;;;;;;1.20;1.10;;;;;;;;;;5075560;28;20180;-71
2023/08/29 10:14:33;;;;;;;2.20;1.30;;;;;;;;;;5075364;28;20665;-72
2023/08/29 10:17:39;;;;;;;1.57;1.00;;;;;;;;;;5075119;28;20183;-72
2023/08/29 10:20:45;;;;;;;1.20;1.07;;;;;;;;;;5074940;28;20207;-71
2023/08/29 10:23:50;;;;;;;4.47;1.30;;;;;;;;;;5074924;28;20215;-71
2023/08/29 10:26:55;;;;;;;0.90;0.90;;;;;;;;;;5062981;28;20175;-72
2023/08/29 10:30:01;;;;;;;1.13;0.90;;;;;;;;;;5074940;28;20175;-72
2023/08/29 10:33:06;;;;;;;1.10;1.00;;;;;;;;;;5075071;28;20550;-72
2023/08/29 10:36:10;;;;;;;1.27;1.00;;;;;;;;;;5074818;28;20175;-72
2023/08/29 10:39:15;;;;;;;1.13;1.00;;;;;;;;;;5062377;28;20176;-72
2023/08/29 10:42:19;;;;;;;1.20;1.07;;;;;;;;;;5061568;28;20567;-72
2023/08/29 10:45:41;;;;;;;1.33;0.90;;;;;;;;;;5074519;28;20183;-72
2023/08/29 10:48:46;;;;;;;1.43;0.77;;;;;;;;;;5062577;28;20180;-72
2023/08/29 10:52:08;;;;;;;0.60;0.60;;;;;;;;;;5074465;28;20211;-72
2023/08/29 10:55:27;;;;;;;0.83;0.77;;;;;;;;;;5062282;28;20184;-72
2023/08/29 10:58:39;;;;;;;0.80;0.60;;;;;;;;;;5062044;28;20195;-72
2023/08/29 11:01:43;;;;;;;1.50;0.60;;;;;;;;;;5074269;28;20669;-72
2023/08/29 11:04:52;;;;;;;1.23;0.60;;;;;;;;;;5061995;28;20191;-72
2023/08/29 11:08:29;;;;;;;0.80;0.60;;;;;;;;;;5074433;28;20191;-73
2023/08/29 11:11:33;;;;;;;1.10;0.50;;;;;;;;;;5045422;28;20191;-72
2023/08/29 11:14:57;;;;;;;0.63;0.50;;;;;;;;;;5061751;28;20183;-72
2023/08/29 11:18:21;;;;;;;1.20;0.70;;;;;;;;;;5074290;28;20180;-72
2023/08/29 11:21:26;;;;;;;0.83;0.60;;;;;;;;;;5073946;28;20212;-72
2023/08/29 11:24:30;;;;;;;1.63;0.60;;;;;;;;;;5074155;28;20175;-72
2023/08/29 11:27:38;;;;;;;0.60;0.60;;;;;;;;;;5074004;28;20199;-72
2023/08/29 11:30:46;;;;;;;0.57;0.47;;;;;;;;;;5061723;28;20195;-72
2023/08/29 11:33:50;;;;;;;0.60;0.50;;;;;;;;;;5073611;28;20207;-72
2023/08/29 11:36:54;;;;;;;0.60;0.60;;;;;;;;;;5073633;28;20203;-72
2023/08/29 11:40:01;;;;;;;0.63;0.50;;;;;;;;;;5061323;28;20195;-72
2023/08/29 11:43:05;;;;;;;0.60;0.50;;;;;;;;;;5073468;28;20701;-72
2023/08/29 11:46:09;;;;;;;1.87;0.70;;;;;;;;;;5061438;28;20191;-72
2023/08/29 11:49:14;;;;;;;2.33;0.60;;;;;;;;;;5073526;28;20510;-72
2023/08/29 11:52:19;;;;;;;1.30;0.70;;;;;;;;;;5073369;28;20207;-72
2023/08/29 11:55:25;;;;;;;1.70;0.70;;;;;;;;;;5060191;28;20538;-72
2023/08/29 11:58:34;;;;;;;0.70;0.50;;;;;;;;;;5073314;28;20203;-72
2023/08/29 12:01:39;;;;;;;0.70;0.70;;;;;;;;;;5073152;28;20208;-72
2023/08/29 12:04:45;;;;;;;0.80;0.70;;;;;;;;;;5061049;28;20179;-72
2023/08/29 12:07:51;;;;;;;1.33;1.00;;;;;;;;;;5073519;28;20175;-72
2023/08/29 12:10:55;;;;;;;1.63;1.00;;;;;;;;;;5049475;28;20171;-72
2023/08/29 12:14:01;;;;;;;1.10;0.90;;;;;;;;;;5073067;28;20199;-72
2023/08/29 12:17:05;;;;;;;1.13;1.03;;;;;;;;;;5073437;28;20199;-73
2023/08/29 12:20:12;;;;;;;1.10;0.90;;;;;;;;;;5073102;28;20175;-73
2023/08/29 12:23:25;;;;;;;3.50;1.10;;;;;;;;;;5060766;28;20215;-73
2023/08/29 12:26:29;;;;;;;1.47;1.20;;;;;;;;;;5060753;28;20179;-72
2023/08/29 12:29:34;;;;;;;1.20;1.10;;;;;;;;;;5073048;28;20183;-73
2023/08/29 12:32:38;;;;;;;0.90;0.90;;;;;;;;;;5072933;28;20215;-72
2023/08/29 12:35:42;;;;;;;1.03;0.80;;;;;;;;;;5072986;28;20175;-73
2023/08/29 12:38:46;;;;;;;2.20;0.90;;;;;;;;;;5072888;28;20180;-72
2023/08/29 12:41:50;;;;;;;1.87;1.00;;;;;;;;;;5060415;28;20223;-72
2023/08/29 12:44:54;;;;;;;1.23;1.10;;;;;;;;;;5073158;28;20175;-72
2023/08/29 12:47:58;;;;;;;3.00;1.10;;;;;;;;;;5072692;28;20191;-72
2023/08/29 12:51:03;;;;;;;1.20;1.10;;;;;;;;;;5072759;28;20195;-72
2023/08/29 12:54:07;;;;;;;2.63;0.93;;;;;;;;;;5060601;28;20179;-73
2023/08/29 12:57:11;;;;;;;2.30;1.20;;;;;;;;;;5060422;28;20187;-73
2023/08/29 13:00:18;;;;;;;1.20;1.10;;;;;;;;;;5072605;28;20183;-72
2023/08/29 13:03:22;;;;;;;1.10;1.00;;;;;;;;;;5072497;28;20207;-73
2023/08/29 13:06:27;;;;;;;1.20;1.10;;;;;;;;;;5062473;28;20175;-74
2023/08/29 13:09:31;;;;;;;1.23;1.10;;;;;;;;;;5076716;28;20180;-73
2023/08/29 13:12:36;;;;;;;1.43;1.30;;;;;;;;;;5076224;28;20210;-72
2023/08/29 13:15:40;;;;;;;1.77;1.20;;;;;;;;;;5064462;28;20183;-72
2023/08/29 13:18:44;;;;;;;2.00;1.17;;;;;;;;;;5076292;28;20179;-72
2023/08/29 13:21:48;;;;;;;1.93;1.30;;;;;;;;;;5076258;28;20203;-73
2023/08/29 13:24:52;;;;;;;2.23;1.20;;;;;;;;;;5076144;28;20175;-73
2023/08/29 13:27:57;;;;;;;1.40;1.27;;;;;;;;;;5076134;28;20638;-72
2023/08/29 13:31:02;;;;;;;1.00;0.80;;;;;;;;;;5076297;28;20183;-72
2023/08/29 13:34:06;;;;;;;1.17;0.73;;;;;;;;;;5076147;28;20172;-72
2023/08/29 13:37:11;;;;;;;1.03;0.93;;;;;;;;;;5063570;28;20179;-73
2023/08/29 13:40:16;;;;;;;1.73;1.00;;;;;;;;;;5076124;28;20184;-73
2023/08/29 13:43:20;;;;;;;1.30;1.00;;;;;;;;;;5075990;28;20223;-72
2023/08/29 13:46:24;;;;;;;1.13;1.03;;;;;;;;;;5075836;28;20199;-72
2023/08/29 13:49:30;;;;;;;1.67;1.40;;;;;;;;;;5075881;28;20214;-72
2023/08/29 13:52:35;;;;;;;1.93;1.30;;;;;;;;;;5051873;28;20207;-72
2023/08/29 13:55:39;;;;;;;2.90;1.20;;;;;;;;;;5075534;28;20180;-72
2023/08/29 13:58:43;;;;;;;1.60;1.50;;;;;;;;;;5063081;28;20199;-72
2023/08/29 14:01:47;;;;;;;6.00;1.27;;;;;;;;;;5062959;28;20199;-73
2023/08/29 14:04:52;;;;;;;1.10;0.83;;;;;;;;;;5075414;28;20184;-72
2023/08/29 14:07:56;;;;;;;1.70;0.80;;;;;;;;;;5075324;28;20187;-72
2023/08/29 14:11:02;;;;;;;1.00;0.80;;;;;;;;;;5075694;28;20184;-72
2023/08/29 14:14:06;;;;;;;1.00;0.90;;;;;;;;;;5075296;28;20171;-72
2023/08/29 14:17:10;;;;;;;0.80;0.73;;;;;;;;;;5061831;28;20176;-72
2023/08/29 14:20:14;;;;;;;0.83;0.83;;;;;;;;;;5075364;28;20175;-72
2023/08/29 14:23:19;;;;;;;2.80;1.00;;;;;;;;;;5062693;28;20223;-72
2023/08/29 14:26:23;;;;;;;1.23;0.90;;;;;;;;;;5075307;28;20176;-72
2023/08/29 14:29:30;;;;;;;2.77;1.00;;;;;;;;;;5074995;28;20183;-72
2023/08/29 14:32:34;;;;;;;0.83;0.83;;;;;;;;;;5075102;28;20689;-73
2023/08/29 14:35:39;;;;;;;2.30;1.00;;;;;;;;;;5074766;28;20183;-72
2023/08/29 14:38:43;;;;;;;1.23;0.77;;;;;;;;;;5074721;28;20171;-73
2023/08/29 14:41:47;;;;;;;1.00;0.90;;;;;;;;;;5074573;28;20203;-73
2023/08/29 14:44:52;;;;;;;1.33;1.10;;;;;;;;;;5074659;28;20179;-73
2023/08/29 14:47:56;;;;;;;1.07;0.93;;;;;;;;;;5062485;28;20179;-73
2023/08/29 14:51:00;;;;;;;1.70;1.10;;;;;;;;;;5074716;28;20175;-73
2023/08/29 14:54:05;;;;;;;1.70;1.10;;;;;;;;;;5074675;28;20172;-72
2023/08/29 14:57:09;;;;;;;1.37;1.13;;;;;;;;;;5074167;28;20171;-73
2023/08/29 15:00:14;;;;;;;1.20;1.10;;;;;;;;;;5074420;28;20519;-73
2023/08/29 15:03:18;;;;;;;1.20;1.10;;;;;;;;;;5074285;28;20231;-73
2023/08/29 15:06:22;;;;;;;2.97;1.10;;;;;;;;;;5074444;28;20187;-72
2023/08/29 15:09:27;;;;;;;1.10;1.00;;;;;;;;;;5074264;28;20179;-72
2023/08/29 15:12:31;;;;;;;2.77;1.03;;;;;;;;;;5073964;28;20207;-72
2023/08/29 15:15:38;;;;;;;1.53;0.97;;;;;;;;;;5061680;28;20175;-72
2023/08/29 15:18:42;;;;;;;1.63;1.33;;;;;;;;;;5074354;28;20179;-72
2023/08/29 15:21:46;;;;;;;1.83;1.03;;;;;;;;;;5073708;28;20630;-72
2023/08/29 15:24:50;;;;;;;1.47;1.37;;;;;;;;;;5073722;28;20195;-73
2023/08/29 15:27:55;;;;;;;1.37;1.03;;;;;;;;;;5074088;28;20172;-73
2023/08/29 15:31:01;;;;;;;1.60;1.10;;;;;;;;;;5061486;28;20176;-72
2023/08/29 15:34:05;;;;;;;1.03;1.00;;;;;;;;;;5073962;28;20176;-72
2023/08/29 15:37:09;;;;;;;7.47;1.40;;;;;;;;;;5061313;28;20176;-72
2023/08/29 15:40:13;;;;;;;1.10;0.97;;;;;;;;;;5061647;28;20523;-72
2023/08/29 15:43:17;;;;;;;1.37;0.80;;;;;;;;;;5073346;28;20219;-73
2023/08/29 15:46:21;;;;;;;2.00;1.00;;;;;;;;;;5061130;28;20184;-72
2023/08/29 15:49:25;;;;;;;0.80;0.80;;;;;;;;;;5061445;28;20653;-73
2023/08/29 15:52:29;;;;;;;1.47;1.10;;;;;;;;;;5073461;28;20211;-72
2023/08/29 15:55:34;;;;;;;1.20;1.10;;;;;;;;;;5073277;28;20179;-72
2023/08/29 15:58:40;;;;;;;1.50;1.13;;;;;;;;;;5075335;28;20211;-72
2023/08/29 16:01:44;;;;;;;2.43;1.37;;;;;;;;;;5060849;28;20175;-72
2023/08/29 16:04:48;;;;;;;3.60;1.10;;;;;;;;;;5073339;28;20187;-72
2023/08/29 16:07:52;;;;;;;1.93;0.70;;;;;;;;;;5073218;28;20187;-73
2023/08/29 16:10:57;;;;;;;1.50;0.80;;;;;;;;;;5073038;28;20199;-72
2023/08/29 16:14:01;;;;;;;2.23;0.70;;;;;;;;;;5049442;28;20171;-73
2023/08/29 16:17:05;;;;;;;1.10;0.60;;;;;;;;;;5060887;28;20179;-73
2023/08/29 16:20:09;;;;;;;0.90;0.70;;;;;;;;;;5073302;28;20179;-73
2023/08/29 16:23:14;;;;;;;2.77;1.07;;;;;;;;;;5072802;28;20231;-73
2023/08/29 16:26:20;;;;;;;1.93;1.03;;;;;;;;;;5073279;28;20199;-73
2023/08/29 16:29:25;;;;;;;1.30;1.20;;;;;;;;;;5060659;28;20179;-74
2023/08/29 16:32:29;;;;;;;1.30;1.10;;;;;;;;;;5060383;28;20207;-73
2023/08/29 16:35:34;;;;;;;1.90;1.50;;;;;;;;;;5072826;28;20535;-73
2023/08/29 16:38:38;;;;;;;3.10;1.60;;;;;;;;;;5072938;28;20168;-72
2023/08/29 16:41:42;;;;;;;1.50;1.40;;;;;;;;;;5063393;28;20179;-73
2023/08/29 16:44:46;;;;;;;3.63;1.60;;;;;;;;;;5064546;28;20168;-73
2023/08/29 16:47:54;;;;;;;1.40;1.30;;;;;;;;;;5064567;28;20195;-73
2023/08/29 16:50:58;;;;;;;2.03;1.70;;;;;;;;;;5064733;28;20180;-73
2023/08/29 16:54:03;;;;;;;1.60;1.47;;;;;;;;;;5076928;28;20167;-73
2023/08/29 16:57:07;;;;;;;2.13;1.87;;;;;;;;;;5064245;28;20523;-73
2023/08/29 17:00:13;;;;;;;1.40;1.30;;;;;;;;;;5076689;28;20183;-73
2023/08/29 17:03:19;;;;;;;3.17;1.30;;;;;;;;;;5076268;28;20215;-73
2023/08/29 17:06:23;;;;;;;1.57;1.43;;;;;;;;;;5076430;28;20523;-73
2023/08/29 17:09:28;;;;;;;2.87;1.53;;;;;;;;;;5076703;28;20225;-73
2023/08/29 17:12:32;;;;;;;1.30;1.20;;;;;;;;;;5076544;28;20215;-73
2023/08/29 17:15:36;;;;;;;1.30;1.20;;;;;;;;;;5064271;28;20183;-73
2023/08/29 17:18:40;;;;;;;1.90;1.37;;;;;;;;;;5076329;28;20184;-73
2023/08/29 17:21:45;;;;;;;2.30;1.30;;;;;;;;;;5063813;28;20531;-73
2023/08/29 17:24:50;;;;;;;2.20;1.10;;;;;;;;;;5076140;28;20200;-73
2023/08/29 17:27:54;;;;;;;4.60;1.50;;;;;;;;;;5076099;28;20195;-73
2023/08/29 17:30:58;;;;;;;1.40;1.30;;;;;;;;;;5076010;28;20180;-73
2023/08/29 17:34:02;;;;;;;1.70;1.50;;;;;;;;;;5063987;28;20167;-72
2023/08/29 17:37:06;;;;;;;2.80;1.43;;;;;;;;;;5075984;28;20199;-73
2023/08/29 17:40:11;;;;;;;1.37;1.20;;;;;;;;;;5075888;28;20179;-73
2023/08/29 17:43:15;;;;;;;1.33;1.23;;;;;;;;;;5075890;28;20223;-73
2023/08/29 17:46:19;;;;;;;5.37;1.87;;;;;;;;;;5052391;28;20279;-73
2023/08/29 17:49:23;;;;;;;1.97;1.63;;;;;;;;;;5063388;28;20175;-73
2023/08/29 17:52:28;;;;;;;2.27;1.63;;;;;;;;;;5061911;28;20574;-73
2023/08/29 17:55:34;;;;;;;1.63;1.50;;;;;;;;;;5075575;28;20199;-73
2023/08/29 17:58:38;;;;;;;3.80;1.83;;;;;;;;;;5075358;28;20646;-72
2023/08/29 18:01:43;;;;;;;1.90;1.80;;;;;;;;;;5062965;28;20180;-72
2023/08/29 18:04:47;;;;;;;3.17;1.90;;;;;;;;;;5075637;28;20215;-73
2023/08/29 18:07:52;;;;;;;2.20;1.80;;;;;;;;;;5063014;28;20180;-73
2023/08/29 18:10:56;;;;;;;2.33;2.10;;;;;;;;;;5075304;28;20184;-73
2023/08/29 18:14:01;;;;;;;2.07;1.87;;;;;;;;;;5075535;28;20661;-73
2023/08/29 18:17:05;;;;;;;3.93;2.20;;;;;;;;;;5075106;28;20191;-73
2023/08/29 18:20:10;;;;;;;2.20;2.00;;;;;;;;;;5051249;28;20176;-73
2023/08/29 18:23:14;;;;;;;1.93;1.80;;;;;;;;;;5062772;28;20219;-73
2023/08/29 18:26:18;;;;;;;2.30;2.10;;;;;;;;;;5074979;28;20179;-73
2023/08/29 18:29:22;;;;;;;3.60;2.30;;;;;;;;;;5074936;28;20176;-73
2023/08/29 18:32:31;;;;;;;3.13;1.90;;;;;;;;;;5062609;28;20215;-73